Time;durP1;ratioP1;P1;durP2;ratioP2;P2;SDS_P1;SDS_P2;PMS_P1;PMS_P2;Temp;Humidity;BMP_temperature;BMP_pressure;BME280_temperature;BME280_humidity;BME280_pressure;Samples;Min_cycle;Max_cycle;Signal;HPM_P1;HPM_P2
2021/04/23 00:00:47;;;;;;;13.73;7.47;;;;;;;9.31;76.59;99396.73;1755880;79;21144;-49
2021/04/23 00:03:44;;;;;;;8.03;6.70;;;;;;;9.31;76.78;99396.73;1755970;79;21189;-49
2021/04/23 00:06:38;;;;;;;10.93;7.83;;;;;;;9.38;77.10;99399.98;1868713;75;23066;-52
2021/04/23 00:09:15;;;;;;;8.30;7.50;;;;;;;9.37;77.27;99406.30;1838531;76;21166;-50
2021/04/23 00:11:53;;;;;;;8.97;8.07;;;;;;;9.41;77.41;99409.24;1837627;76;21347;-51
2021/04/23 00:14:23;;;;;;;11.57;9.90;;;;;;;9.41;77.58;99412.80;1781778;78;21076;-51
2021/04/23 00:16:51;;;;;;;12.23;10.93;;;;;;;9.46;77.64;99412.56;1793303;78;21580;-49
2021/04/23 00:19:22;;;;;;;12.53;10.40;;;;;;;9.49;77.60;99417.32;1781892;79;21115;-50
2021/04/23 00:21:49;;;;;;;14.23;11.13;;;;;;;9.51;77.51;99415.91;1778586;79;21186;-51
2021/04/23 00:24:17;;;;;;;12.10;9.63;;;;;;;9.51;77.46;99421.28;1780005;79;21939;-49
2021/04/23 00:26:47;;;;;;;13.40;7.43;;;;;;;9.51;77.42;99419.94;1804451;78;21166;-49
2021/04/23 00:29:15;;;;;;;11.00;7.53;;;;;;;9.53;77.30;99433.30;1776516;78;21226;-50
2021/04/23 00:34:29;;;;;;;12.20;10.90;;;;;;;9.53;77.25;99454.80;1800111;78;21147;-50
2021/04/23 00:36:57;;;;;;;11.00;9.87;;;;;;;9.52;77.33;99455.27;1765407;79;21379;-51
2021/04/23 00:39:24;;;;;;;13.83;12.37;;;;;;;9.52;77.49;99453.05;1779924;79;21245;-51
2021/04/23 00:41:51;;;;;;;13.17;11.23;;;;;;;9.52;77.62;99456.61;1786234;78;21210;-50
2021/04/23 00:44:19;;;;;;;14.17;12.67;;;;;;;9.54;77.68;99458.73;1752344;79;21206;-51
2021/04/23 00:46:46;;;;;;;12.00;10.90;;;;;;;9.56;77.72;99455.50;1754459;79;21209;-50
2021/04/23 00:49:13;;;;;;;10.37;9.43;;;;;;;9.59;77.76;99450.46;1755232;79;21218;-51
2021/04/23 00:51:46;;;;;;;12.23;10.50;;;;;;;9.63;77.76;99451.56;1756765;79;21179;-51
2021/04/23 00:54:14;;;;;;;12.30;10.03;;;;;;;9.66;77.82;99447.39;1758299;79;21130;-50
2021/04/23 00:56:43;;;;;;;12.37;10.80;;;;;;;9.69;77.84;99442.34;1754426;79;21207;-50
2021/04/23 00:59:13;;;;;;;11.03;10.00;;;;;;;9.74;77.82;99444.33;1753596;79;21541;-51
2021/04/23 01:01:46;;;;;;;14.83;10.73;;;;;;;9.75;77.85;99444.72;1751723;79;21218;-50
2021/04/23 01:04:17;;;;;;;14.05;11.68;;;;;;;9.76;77.87;99439.75;1756461;79;21261;-50
2021/04/23 01:06:44;;;;;;;13.37;12.13;;;;;;;9.79;77.87;99435.08;1754592;79;21138;-51
2021/04/23 01:09:17;;;;;;;13.93;11.60;;;;;;;9.82;77.83;99438.09;1757749;79;21130;-50
2021/04/23 01:11:46;;;;;;;15.50;13.03;;;;;;;9.83;77.60;99438.02;1758043;79;21123;-51
2021/04/23 01:14:14;;;;;;;12.80;10.70;;;;;;;9.83;77.60;99438.02;1751181;79;21595;-49
2021/04/23 01:16:43;;;;;;;13.80;11.13;;;;;;;9.86;77.75;99437.00;1755378;79;21126;-51
2021/04/23 01:19:13;;;;;;;9.60;8.70;;;;;;;9.85;77.72;99440.64;1755404;79;21111;-50
2021/04/23 01:21:43;;;;;;;10.90;9.27;;;;;;;9.87;77.67;99442.75;1755652;79;21419;-51
2021/04/23 01:24:11;;;;;;;11.67;8.67;;;;;;;9.88;77.69;99433.74;1755868;79;21517;-50
2021/04/23 01:26:42;;;;;;;9.17;8.27;;;;;;;9.91;77.65;99430.03;1756113;79;21475;-51
2021/04/23 01:29:11;;;;;;;11.23;9.60;;;;;;;9.91;77.61;99429.56;1755972;79;21147;-51
2021/04/23 01:31:40;;;;;;;8.93;8.13;;;;;;;9.91;77.58;99434.07;1756712;79;21164;-51
2021/04/23 01:34:32;;;;;;;13.03;9.10;;;;;;;9.90;77.49;99436.36;1753012;79;21510;-51
2021/04/23 01:37:00;;;;;;;9.00;7.73;;;;;;;9.86;77.47;99438.35;1754095;79;21582;-51
2021/04/23 01:39:29;;;;;;;7.10;6.50;;;;;;;9.82;77.45;99436.27;1744314;80;21847;-50
2021/04/23 01:41:56;;;;;;;6.50;6.00;;;;;;;9.81;77.44;99431.84;1763440;79;20987;-50
2021/04/23 01:44:24;;;;;;;6.13;5.53;;;;;;;9.79;77.47;99435.08;1760808;79;21675;-50
2021/04/23 01:46:53;;;;;;;6.87;6.10;;;;;;;9.80;77.54;99440.85;1759471;79;21123;-51
2021/04/23 01:49:21;;;;;;;7.03;6.27;;;;;;;9.81;77.57;99449.31;1758153;79;21477;-50
2021/04/23 01:51:57;;;;;;;8.00;7.37;;;;;;;9.81;77.61;99453.34;1763899;79;21140;-49
2021/04/23 01:54:25;;;;;;;8.70;7.93;;;;;;;9.81;77.61;99461.88;1760331;79;21174;-51
2021/04/23 01:56:52;;;;;;;9.80;8.83;;;;;;;9.79;77.64;99459.27;1759781;79;21120;-51
2021/04/23 01:59:21;;;;;;;9.30;7.90;;;;;;;9.76;77.70;99458.56;1760874;79;21108;-51
2021/04/23 02:01:49;;;;;;;6.20;5.80;;;;;;;9.74;77.75;99464.02;1756741;79;21709;-48
2021/04/23 02:04:17;;;;;;;6.57;6.07;;;;;;;9.74;77.86;99466.70;1757930;79;21860;-51
2021/04/23 02:06:47;;;;;;;6.10;5.60;;;;;;;9.75;77.93;99467.09;1760281;79;21171;-50
2021/04/23 02:09:15;;;;;;;5.50;5.10;;;;;;;9.77;77.99;99471.94;1756497;79;21201;-51
2021/04/23 02:11:44;;;;;;;6.13;5.63;;;;;;;9.80;78.00;99471.77;1758401;79;21111;-49
2021/04/23 02:14:11;;;;;;;6.97;6.33;;;;;;;9.83;78.04;99466.72;1760168;79;21165;-49
2021/04/23 02:16:39;;;;;;;7.93;7.17;;;;;;;9.85;78.08;99472.90;1760575;79;21198;-51
2021/04/23 02:19:09;;;;;;;7.93;7.43;;;;;;;9.87;78.07;99470.51;1761180;79;21191;-49
2021/04/23 02:21:36;;;;;;;7.13;6.53;;;;;;;9.88;78.05;99472.72;1756847;79;21203;-50
2021/04/23 02:24:04;;;;;;;5.60;5.10;;;;;;;9.87;78.05;99473.20;1762154;79;21211;-50
2021/04/23 02:26:33;;;;;;;3.17;2.77;;;;;;;9.86;78.11;99489.42;1760525;79;21131;-50
2021/04/23 02:29:00;;;;;;;2.50;2.07;;;;;;;9.77;77.07;99499.28;1758272;79;21621;-50
2021/04/23 02:31:28;;;;;;;2.30;2.10;;;;;;;9.61;75.68;99507.19;1760907;79;21147;-49
2021/04/23 02:33:59;;;;;;;2.17;1.27;;;;;;;9.43;74.90;99507.63;1757842;79;21155;-49
2021/04/23 02:36:26;;;;;;;3.00;1.43;;;;;;;9.26;73.79;99523.67;1757685;79;21166;-49
2021/04/23 02:38:53;;;;;;;1.83;1.10;;;;;;;9.09;73.28;99532.97;1759707;79;21582;-49
2021/04/23 02:41:21;;;;;;;2.10;1.20;;;;;;;8.95;73.04;99532.23;1763338;79;22386;-49
2021/04/23 02:43:52;;;;;;;2.40;1.53;;;;;;;8.82;73.05;99550.31;1760319;79;21144;-50
2021/04/23 02:46:21;;;;;;;1.80;0.80;;;;;;;8.73;72.89;99542.19;1760003;79;21571;-50
2021/04/23 02:48:49;;;;;;;2.33;1.07;;;;;;;8.62;72.75;99552.05;1760420;79;21203;-51
2021/04/23 02:51:23;;;;;;;1.97;1.00;;;;;;;8.55;72.55;99571.16;1760231;79;21207;-48
2021/04/23 02:53:53;;;;;;;1.57;1.10;;;;;;;8.47;71.50;99575.98;1756257;79;21222;-50
2021/04/23 02:56:20;;;;;;;1.60;1.07;;;;;;;8.35;71.62;99572.87;1762528;79;21696;-49
2021/04/23 02:58:50;;;;;;;2.50;0.90;;;;;;;8.24;71.10;99583.16;1756411;79;21190;-51
2021/04/23 03:01:22;;;;;;;3.53;1.10;;;;;;;8.15;71.04;99584.00;1758153;79;21191;-48
2021/04/23 03:03:51;;;;;;;3.27;1.07;;;;;;;8.02;70.33;99588.97;1762874;79;21210;-48
2021/04/23 03:06:19;;;;;;;2.63;0.80;;;;;;;7.85;70.02;99585.62;1758763;79;21387;-50
2021/04/23 03:08:47;;;;;;;1.57;0.87;;;;;;;7.71;70.38;99586.66;1745900;79;21224;-51
2021/04/23 03:11:18;;;;;;;2.47;0.97;;;;;;;7.66;70.65;99594.44;1748665;80;21163;-49
2021/04/23 03:13:49;;;;;;;1.93;1.00;;;;;;;7.63;70.76;99608.84;1751627;79;21421;-49
2021/04/23 03:16:17;;;;;;;9.33;1.87;;;;;;;7.56;70.88;99618.94;1730228;80;20987;-50
2021/04/23 03:18:45;;;;;;;1.87;0.90;;;;;;;7.49;70.63;99612.03;1741240;80;21379;-50
2021/04/23 03:21:13;;;;;;;7.67;1.27;;;;;;;7.37;70.56;99621.89;1738653;80;21140;-50
2021/04/23 03:23:41;;;;;;;1.60;0.90;;;;;;;7.25;70.81;99624.12;1735472;80;21185;-53
2021/04/23 03:26:09;;;;;;;2.03;0.87;;;;;;;7.15;71.08;99623.59;1730223;80;21576;-51
2021/04/23 03:28:38;;;;;;;1.47;0.73;;;;;;;7.12;71.41;99633.09;1746662;80;21672;-52
2021/04/23 03:31:05;;;;;;;2.73;0.93;;;;;;;7.11;71.71;99635.35;1733773;81;22094;-50
2021/04/23 03:33:33;;;;;;;3.60;0.90;;;;;;;7.08;71.76;99637.66;1737404;80;21206;-50
2021/04/23 03:36:01;;;;;;;2.03;0.87;;;;;;;7.04;71.88;99634.70;1752485;80;21174;-50
2021/04/23 03:38:30;;;;;;;1.93;1.00;;;;;;;7.03;71.98;99641.45;1740354;80;21196;-51
2021/04/23 03:40:58;;;;;;;1.73;0.90;;;;;;;6.97;71.94;99639.88;1739254;80;21220;-49
2021/04/23 03:43:25;;;;;;;1.70;0.77;;;;;;;6.93;72.05;99644.91;1742536;80;21376;-52
2021/04/23 03:45:53;;;;;;;1.97;0.80;;;;;;;6.87;72.13;99648.27;1739889;80;21232;-54
2021/04/23 03:48:20;;;;;;;1.60;0.90;;;;;;;6.83;72.37;99647.02;1736854;80;22288;-52
2021/04/23 03:50:48;;;;;;;2.73;0.67;;;;;;;6.80;72.67;99645.78;1738971;80;21208;-51
2021/04/23 03:53:15;;;;;;;3.00;1.43;;;;;;;6.82;72.87;99651.08;1692500;80;21231;-52
2021/04/23 03:55:49;;;;;;;2.20;0.80;;;;;;;6.82;72.97;99649.28;1737724;80;21734;-51
2021/04/23 03:58:20;;;;;;;2.17;0.88;;;;;;;6.79;73.22;99649.41;1740546;80;21220;-54
2021/04/23 04:00:54;;;;;;;3.50;1.03;;;;;;;6.75;73.42;99653.56;1738190;80;21196;-53
2021/04/23 04:03:23;;;;;;;3.40;0.97;;;;;;;6.71;73.52;99655.49;1741843;80;21204;-48
2021/04/23 04:05:51;;;;;;;3.40;0.80;;;;;;;6.65;73.95;99661.02;1736397;80;21162;-49
2021/04/23 04:08:18;;;;;;;1.70;0.70;;;;;;;6.60;74.06;99661.66;1736480;80;21584;-48
2021/04/23 04:10:47;;;;;;;2.37;0.90;;;;;;;6.56;74.29;99668.02;1719602;81;21418;-50
2021/04/23 04:13:15;;;;;;;2.70;0.80;;;;;;;6.52;74.55;99655.69;1725630;80;21131;-53
2021/04/23 04:15:43;;;;;;;6.07;1.43;;;;;;;6.51;74.84;99661.08;1735254;80;21202;-51
2021/04/23 04:18:11;;;;;;;3.53;0.90;;;;;;;6.51;75.13;99659.28;1735623;81;21123;-48
2021/04/23 04:20:42;;;;;;;4.23;1.07;;;;;;;6.49;75.08;99654.91;1733030;80;21417;-50
2021/04/23 04:23:14;;;;;;;2.53;0.83;;;;;;;6.48;75.28;99655.83;1738826;81;21683;-50
2021/04/23 04:25:39;;;;;;;5.47;1.20;;;;;;;6.48;75.56;99655.37;1736279;81;21019;-52
2021/04/23 04:28:08;;;;;;;1.40;1.10;;;;;;;6.51;75.62;99660.63;1737900;81;21108;-50
2021/04/23 04:30:36;;;;;;;3.33;0.80;;;;;;;6.50;75.62;99657.99;1736811;80;21876;-51
2021/04/23 04:33:05;;;;;;;4.40;1.00;;;;;;;6.52;75.83;99661.50;1732297;80;22732;-52
2021/04/23 04:35:32;;;;;;;2.37;0.87;;;;;;;6.52;75.80;99662.84;1732421;81;21199;-51
2021/04/23 04:37:59;;;;;;;2.83;0.80;;;;;;;6.53;76.00;99661.45;1735729;80;21617;-50
2021/04/23 04:40:27;;;;;;;2.63;1.00;;;;;;;6.57;76.00;99663.08;1735286;80;21502;-52
2021/04/23 04:42:56;;;;;;;4.70;1.10;;;;;;;6.59;76.08;99661.23;1732910;80;21873;-50
2021/04/23 04:45:26;;;;;;;2.40;0.90;;;;;;;6.62;76.10;99666.50;1734836;80;21556;-51
2021/04/23 04:47:53;;;;;;;3.53;0.90;;;;;;;6.63;76.08;99670.92;1736924;80;21155;-49
2021/04/23 04:50:27;;;;;;;2.67;0.87;;;;;;;6.63;76.12;99665.58;1735069;80;21119;-49
2021/04/23 04:52:56;;;;;;;6.23;0.83;;;;;;;6.66;76.14;99669.47;1738123;80;21099;-50
2021/04/23 04:55:28;;;;;;;1.93;0.70;;;;;;;6.72;76.21;99673.26;1734313;80;21115;-50
2021/04/23 04:57:57;;;;;;;2.40;1.20;;;;;;;6.79;76.24;99671.28;1732491;80;21610;-49
2021/04/23 05:00:25;;;;;;;1.93;0.80;;;;;;;6.84;76.26;99672.86;1734460;80;21219;-49
2021/04/23 05:02:53;;;;;;;1.10;0.83;;;;;;;6.94;76.25;99679.23;1735814;80;21776;-51
2021/04/23 05:05:21;;;;;;;1.93;0.90;;;;;;;7.02;76.17;99685.19;1740118;80;21122;-51
2021/04/23 05:07:48;;;;;;;2.90;0.80;;;;;;;7.07;76.10;99691.24;1758040;79;21633;-50
2021/04/23 05:10:15;;;;;;;2.17;1.00;;;;;;;7.10;75.99;99684.45;1758438;79;21237;-51
2021/04/23 05:12:43;;;;;;;3.77;1.10;;;;;;;7.14;76.00;99682.09;1755974;79;22004;-50
2021/04/23 05:15:11;;;;;;;3.07;1.00;;;;;;;7.18;76.08;99677.03;1757919;79;21174;-51
2021/04/23 05:17:39;;;;;;;2.20;0.90;;;;;;;7.23;75.82;99674.20;1759241;79;21472;-50
2021/04/23 05:20:10;;;;;;;3.00;0.90;;;;;;;7.27;75.82;99675.36;1759567;79;21554;-51
2021/04/23 05:22:40;;;;;;;1.63;0.70;;;;;;;7.32;75.76;99674.72;1757013;79;21205;-50
2021/04/23 05:25:10;;;;;;;1.20;0.87;;;;;;;7.37;75.20;99678.12;1756199;79;22150;-51
2021/04/23 05:27:37;;;;;;;2.17;1.00;;;;;;;7.42;75.31;99681.95;1760666;79;21760;-50
2021/04/23 05:30:08;;;;;;;2.57;1.20;;;;;;;7.46;75.07;99671.09;1759130;79;21245;-51
2021/04/23 05:32:37;;;;;;;3.33;1.13;;;;;;;7.49;74.93;99674.09;1760068;79;21193;-49
2021/04/23 05:35:06;;;;;;;2.10;1.13;;;;;;;7.51;75.00;99678.48;1759940;79;21695;-49
2021/04/23 05:37:34;;;;;;;2.37;1.20;;;;;;;7.52;74.62;99674.88;1760802;79;21664;-51
2021/04/23 05:40:03;;;;;;;1.20;1.00;;;;;;;7.50;74.25;99682.08;1760668;79;21202;-50
2021/04/23 05:42:31;;;;;;;5.53;0.90;;;;;;;7.54;74.32;99690.89;1754795;79;21114;-49
2021/04/23 05:44:58;;;;;;;1.50;0.90;;;;;;;7.58;74.32;99686.69;1758429;79;21647;-51
2021/04/23 05:47:26;;;;;;;1.83;1.20;;;;;;;7.63;74.29;99682.98;1759660;79;21784;-49
2021/04/23 05:49:53;;;;;;;3.03;1.20;;;;;;;7.70;74.36;99691.19;1758432;79;21166;-49
2021/04/23 05:52:21;;;;;;;2.80;1.00;;;;;;;7.78;74.04;99686.42;1756125;79;21463;-49
2021/04/23 05:54:48;;;;;;;1.73;1.10;;;;;;;7.84;74.16;99691.53;1758511;79;22387;-51
2021/04/23 05:57:15;;;;;;;3.40;1.10;;;;;;;7.87;73.81;99686.07;1754508;79;21221;-49
2021/04/23 05:59:42;;;;;;;2.90;1.00;;;;;;;7.90;73.83;99691.33;1757468;79;22039;-49
2021/04/23 06:02:09;;;;;;;3.50;1.60;;;;;;;7.91;73.17;99693.92;1759496;79;21189;-49
2021/04/23 06:04:37;;;;;;;4.57;1.30;;;;;;;7.89;73.12;99692.25;1780155;78;21198;-51
2021/04/23 06:07:04;;;;;;;2.30;1.07;;;;;;;7.87;72.97;99691.43;1747059;79;21731;-51
2021/04/23 06:09:31;;;;;;;2.03;0.80;;;;;;;7.89;72.95;99688.23;1734346;80;21218;-49
2021/04/23 06:11:59;;;;;;;1.73;0.70;;;;;;;7.96;72.89;99693.76;1732258;80;22165;-49
2021/04/23 06:14:27;;;;;;;1.57;0.80;;;;;;;8.02;72.73;99701.55;1732184;80;21187;-51
2021/04/23 06:16:56;;;;;;;2.37;0.90;;;;;;;8.08;72.14;99705.33;1720140;81;21142;-49
2021/04/23 06:19:23;;;;;;;2.17;1.13;;;;;;;8.13;71.69;99703.83;1726057;80;21147;-48
2021/04/23 06:21:51;;;;;;;2.20;0.87;;;;;;;8.20;71.80;99709.35;1709401;81;21186;-50
2021/04/23 06:24:18;;;;;;;3.00;0.90;;;;;;;8.26;71.95;99713.13;1727580;80;21389;-49
2021/04/23 06:26:46;;;;;;;2.27;0.70;;;;;;;8.32;71.69;99716.96;1726066;81;21218;-49
2021/04/23 06:29:13;;;;;;;2.80;1.07;;;;;;;8.37;71.48;99711.40;1730708;81;21827;-49
2021/04/23 06:31:40;;;;;;;4.93;0.70;;;;;;;8.44;71.23;99711.55;1733837;80;21203;-49
2021/04/23 06:34:08;;;;;;;2.30;0.70;;;;;;;8.51;70.69;99700.52;1706233;81;21524;-51
2021/04/23 06:36:35;;;;;;;2.60;0.70;;;;;;;8.59;70.16;99705.09;1732333;80;21709;-49
2021/04/23 06:39:05;;;;;;;2.60;0.70;;;;;;;8.67;69.58;99706.16;1735244;81;21217;-48
2021/04/23 06:41:32;;;;;;;3.43;0.93;;;;;;;8.71;68.91;99707.29;1734090;80;21337;-49
2021/04/23 06:44:00;;;;;;;4.13;0.90;;;;;;;8.73;68.22;99704.55;1734716;81;21146;-51
2021/04/23 06:46:27;;;;;;;4.27;1.20;;;;;;;8.73;68.15;99709.91;1732930;80;21135;-50
2021/04/23 06:48:54;;;;;;;5.10;1.10;;;;;;;8.73;68.29;99705.42;1735777;80;21374;-50
2021/04/23 06:51:21;;;;;;;1.40;0.90;;;;;;;8.76;68.12;99711.61;1735267;80;21859;-49
2021/04/23 06:53:48;;;;;;;2.20;0.80;;;;;;;8.77;68.02;99714.20;1734596;81;21178;-50
2021/04/23 06:56:16;;;;;;;3.03;1.00;;;;;;;8.75;67.78;99716.09;1740930;80;21178;-50
2021/04/23 06:58:46;;;;;;;3.77;0.80;;;;;;;8.71;67.15;99703.73;1727779;80;21192;-50
2021/04/23 07:01:16;;;;;;;1.77;0.87;;;;;;;8.69;66.81;99702.91;1715642;81;21730;-51
2021/04/23 07:03:44;;;;;;;3.97;1.10;;;;;;;8.65;65.96;99708.89;1751715;80;21206;-51
2021/04/23 07:06:11;;;;;;;2.30;0.70;;;;;;;8.61;66.29;99709.06;1728917;81;21237;-49
2021/04/23 07:08:39;;;;;;;2.50;0.80;;;;;;;8.60;66.49;99713.55;1740209;80;21223;-51
2021/04/23 07:11:07;;;;;;;3.43;1.03;;;;;;;8.66;66.58;99711.11;1742148;80;21145;-49
2021/04/23 07:13:35;;;;;;;2.57;0.80;;;;;;;8.71;66.16;99709.97;1734352;80;21579;-51
2021/04/23 07:16:02;;;;;;;3.10;0.90;;;;;;;8.77;66.34;99718.23;1732610;80;21098;-49
2021/04/23 07:18:30;;;;;;;1.73;0.80;;;;;;;8.79;65.89;99710.99;1740262;80;21650;-49
2021/04/23 07:20:57;;;;;;;3.83;0.90;;;;;;;8.80;65.95;99718.11;1742397;80;21120;-51
2021/04/23 07:23:25;;;;;;;2.10;1.00;;;;;;;8.86;66.46;99717.84;1739386;80;21120;-49
2021/04/23 07:25:52;;;;;;;2.10;0.70;;;;;;;8.92;66.23;99718.95;1737263;80;21389;-51
2021/04/23 07:28:20;;;;;;;2.27;0.90;;;;;;;8.95;65.53;99716.59;1736160;80;21462;-49
2021/04/23 07:30:48;;;;;;;5.87;0.80;;;;;;;9.01;65.34;99720.38;1740930;80;21098;-50
2021/04/23 07:33:15;;;;;;;4.50;2.37;;;;;;;9.08;65.29;99715.14;1738652;80;21666;-49
2021/04/23 07:35:44;;;;;;;1.30;0.90;;;;;;;9.14;64.78;99720.72;1737985;80;21200;-49
2021/04/23 07:38:13;;;;;;;2.77;1.10;;;;;;;9.18;65.13;99720.53;1743041;80;21939;-49
2021/04/23 07:40:40;;;;;;;2.60;1.27;;;;;;;9.23;65.25;99729.25;1739293;80;21093;-51
2021/04/23 07:43:07;;;;;;;2.07;0.90;;;;;;;9.25;65.05;99719.32;1740707;80;21121;-50
2021/04/23 07:45:37;;;;;;;3.83;1.60;;;;;;;9.24;64.18;99724.29;1737438;80;21503;-50
2021/04/23 07:48:06;;;;;;;1.47;0.80;;;;;;;9.19;64.35;99714.66;1740928;80;21491;-50
2021/04/23 07:50:34;;;;;;;6.43;0.80;;;;;;;9.16;64.02;99711.66;1744151;80;21378;-50
2021/04/23 07:53:01;;;;;;;1.07;0.80;;;;;;;9.14;64.03;99709.97;1746177;79;21603;-50
2021/04/23 07:55:31;;;;;;;4.33;0.80;;;;;;;9.12;64.05;99707.34;1754448;80;21118;-49
2021/04/23 07:57:58;;;;;;;2.03;0.80;;;;;;;9.13;63.65;99710.44;1750403;79;21205;-48
2021/04/23 08:00:26;;;;;;;4.10;0.80;;;;;;;9.12;63.62;99711.37;1747789;79;21146;-49
2021/04/23 08:02:54;;;;;;;3.43;0.80;;;;;;;9.12;63.42;99708.69;1754311;79;22278;-49
2021/04/23 08:05:23;;;;;;;3.17;0.80;;;;;;;9.13;63.36;99713.59;1752839;80;21224;-49
2021/04/23 08:07:52;;;;;;;1.57;0.70;;;;;;;9.14;63.61;99715.34;1745421;80;21248;-50
2021/04/23 08:10:19;;;;;;;2.40;0.80;;;;;;;9.16;63.21;99712.13;1742217;80;21608;-50
2021/04/23 08:12:51;;;;;;;2.03;0.63;;;;;;;9.15;63.59;99713.06;1745319;80;21100;-49
2021/04/23 08:15:20;;;;;;;2.80;0.70;;;;;;;9.17;63.88;99710.73;1741941;80;21353;-49
2021/04/23 08:17:49;;;;;;;3.10;0.70;;;;;;;9.28;63.95;99714.27;1749168;79;21198;-48
2021/04/23 08:20:19;;;;;;;2.13;0.80;;;;;;;9.41;63.98;99716.84;1748038;79;21196;-50
2021/04/23 08:22:48;;;;;;;2.87;0.73;;;;;;;9.53;62.90;99714.09;1752506;79;21226;-51
2021/04/23 08:25:17;;;;;;;1.67;0.77;;;;;;;9.60;62.57;99708.84;1750753;79;21211;-51
2021/04/23 08:27:46;;;;;;;4.20;0.80;;;;;;;9.70;61.81;99706.98;1747673;79;21761;-50
2021/04/23 08:30:15;;;;;;;2.20;0.78;;;;;;;9.80;61.24;99724.45;1753633;79;21180;-50
2021/04/23 08:32:43;;;;;;;4.27;0.80;;;;;;;9.87;61.05;99716.97;1749919;79;21679;-50
2021/04/23 08:35:12;;;;;;;1.67;0.67;;;;;;;9.92;60.89;99712.73;1751526;79;21643;-50
2021/04/23 08:37:41;;;;;;;1.30;0.70;;;;;;;9.98;60.93;99706.59;1753862;79;21187;-49
2021/04/23 08:40:12;;;;;;;3.40;1.07;;;;;;;10.06;61.65;99711.62;1751872;79;22084;-49
2021/04/23 08:42:41;;;;;;;1.53;0.90;;;;;;;10.12;62.29;99712.20;1750486;79;21171;-49
2021/04/23 08:45:14;;;;;;;2.00;0.70;;;;;;;10.20;61.58;99709.20;1752561;79;21166;-50
2021/04/23 08:47:43;;;;;;;3.10;0.70;;;;;;;10.25;61.26;99713.88;1750102;79;21202;-50
2021/04/23 08:50:12;;;;;;;1.73;0.90;;;;;;;10.32;61.38;99713.11;1752562;79;21210;-49
2021/04/23 08:52:42;;;;;;;5.53;0.70;;;;;;;10.41;61.20;99710.86;1750288;79;21219;-51
2021/04/23 08:55:13;;;;;;;1.10;0.70;;;;;;;10.52;60.66;99706.31;1749721;79;21634;-50
2021/04/23 08:57:40;;;;;;;1.10;0.70;;;;;;;10.61;60.26;99708.08;1749888;79;21189;-50
2021/04/23 09:00:10;;;;;;;2.10;0.70;;;;;;;10.68;57.97;99709.11;1750529;79;21630;-51
2021/04/23 09:02:38;;;;;;;3.17;0.60;;;;;;;10.69;57.11;99696.06;1754334;79;21214;-49
2021/04/23 09:05:07;;;;;;;1.10;0.68;;;;;;;10.71;56.89;99695.05;1751993;79;21374;-51
2021/04/23 09:07:35;;;;;;;3.72;0.80;;;;;;;10.76;57.08;99692.98;1772643;78;21274;-50
2021/04/23 09:10:11;;;;;;;3.05;0.70;;;;;;;10.78;57.09;99700.52;1738190;80;21623;-49
2021/04/23 09:12:39;;;;;;;1.45;0.88;;;;;;;10.83;57.29;99702.49;1759915;79;21186;-50
2021/04/23 09:15:24;;;;;;;13.90;0.90;;;;;;;10.89;57.74;99710.73;1756539;79;21147;-51
2021/04/23 09:18:13;;;;;;;1.20;0.62;;;;;;;10.91;57.56;99712.88;1750060;79;21570;-50
2021/04/23 09:23:52;;;;;;;2.67;0.70;;;;;;;11.09;56.16;99707.03;1789156;77;23866;-49
2021/04/23 09:26:37;;;;;;;1.60;0.72;;;;;;;11.11;56.03;99708.71;1770441;78;20996;-51
2021/04/23 09:29:05;;;;;;;1.10;0.55;;;;;;;11.14;55.57;99707.22;1765877;78;21353;-51
2021/04/23 09:31:34;;;;;;;1.07;0.50;;;;;;;11.22;54.38;99707.70;1768375;78;21135;-48
2021/04/23 09:34:07;;;;;;;2.45;0.60;;;;;;;11.23;53.19;99706.72;1765951;78;20993;-49
2021/04/23 09:36:46;;;;;;;3.45;0.70;;;;;;;11.26;52.51;99706.57;1763734;78;22444;-50
2021/04/23 09:39:24;;;;;;;1.57;0.85;;;;;;;11.35;52.99;99717.34;1768122;78;21215;-51
2021/04/23 09:42:01;;;;;;;2.35;0.60;;;;;;;11.43;52.50;99703.47;1759205;78;21463;-49
2021/04/23 09:44:43;;;;;;;2.87;0.70;;;;;;;11.50;52.76;99714.32;1704718;82;21559;-50
2021/04/23 09:47:18;;;;;;;4.10;0.80;;;;;;;11.52;51.59;99703.86;1694725;83;21622;-49
2021/04/23 09:49:55;;;;;;;2.00;0.60;;;;;;;11.53;51.29;99703.39;1691530;83;21239;-49
2021/04/23 09:52:25;;;;;;;2.22;0.60;;;;;;;11.48;51.40;99707.69;1697171;82;21187;-49
2021/04/23 09:55:03;;;;;;;3.00;0.70;;;;;;;11.46;52.01;99695.23;1698351;82;21921;-50
2021/04/23 10:00:11;;;;;;;2.57;0.70;;;;;;;11.50;50.52;99680.63;1868862;74;22563;-51
2021/04/23 10:02:38;;;;;;;0.70;0.50;;;;;;;11.49;50.94;99686.97;1838131;75;21139;-50
2021/04/23 10:05:07;;;;;;;4.42;0.60;;;;;;;11.51;50.54;99693.16;1833009;75;21420;-50
2021/04/23 10:07:35;;;;;;;2.12;0.60;;;;;;;11.52;50.76;99690.86;1836342;75;21482;-50
2021/04/23 10:10:11;;;;;;;3.47;0.62;;;;;;;11.56;50.08;99693.33;1837063;75;20964;-51
2021/04/23 10:12:45;;;;;;;1.80;0.50;;;;;;;11.56;49.06;99683.89;1837732;75;21387;-50
2021/04/23 10:15:25;;;;;;;1.45;0.50;;;;;;;11.56;48.68;99683.02;1834774;75;21450;-49
2021/04/23 10:18:05;;;;;;;1.30;0.70;;;;;;;11.64;47.64;99676.73;1839473;75;21542;-51
2021/04/23 10:20:37;;;;;;;1.07;0.47;;;;;;;11.72;47.30;99679.42;1836514;75;21351;-50
2021/04/23 10:23:06;;;;;;;1.35;0.50;;;;;;;11.82;46.32;99670.39;1839993;75;20936;-51
2021/04/23 10:25:34;;;;;;;1.00;0.50;;;;;;;11.93;46.23;99666.60;1833438;75;21142;-49
2021/04/23 10:28:05;;;;;;;0.62;0.30;;;;;;;12.05;45.25;99669.11;1834209;75;21100;-50
2021/04/23 10:30:38;;;;;;;1.42;0.60;;;;;;;12.16;45.33;99655.91;1838513;75;21572;-50
2021/04/23 10:33:12;;;;;;;1.57;0.50;;;;;;;12.27;43.78;99656.63;1838822;75;20980;-49
2021/04/23 10:35:41;;;;;;;3.27;0.50;;;;;;;12.27;43.58;99652.09;1836106;75;21398;-52
2021/04/23 10:38:13;;;;;;;2.08;0.55;;;;;;;12.27;43.93;99662.02;1835781;75;21114;-49
2021/04/23 10:40:58;;;;;;;1.20;0.57;;;;;;;12.27;43.98;99660.20;1865339;74;22359;-50
2021/04/23 10:43:27;;;;;;;1.57;0.50;;;;;;;12.24;44.38;99663.56;1800666;77;21082;-50
2021/04/23 10:46:09;;;;;;;2.30;0.50;;;;;;;12.30;44.81;99663.20;1804481;77;21430;-50
2021/04/23 10:48:40;;;;;;;1.72;0.60;;;;;;;12.34;45.07;99655.31;1805900;77;21541;-50
2021/04/23 10:51:22;;;;;;;2.70;0.55;;;;;;;12.38;44.03;99655.06;1806428;77;21087;-49
2021/04/23 10:53:52;;;;;;;1.47;0.40;;;;;;;12.39;44.57;99663.56;1808474;77;21150;-51
2021/04/23 10:56:34;;;;;;;2.80;0.60;;;;;;;12.40;44.76;99661.25;1805785;77;21163;-50
2021/04/23 10:59:05;;;;;;;1.17;0.50;;;;;;;12.41;45.20;99660.30;1749949;80;21762;-51
2021/04/23 11:01:38;;;;;;;1.85;0.50;;;;;;;12.42;46.04;99659.80;1767070;78;21472;-51
2021/04/23 11:04:10;;;;;;;4.45;0.65;;;;;;;12.41;45.72;99663.48;1771031;78;20969;-50
2021/04/23 11:06:43;;;;;;;1.55;0.62;;;;;;;12.35;45.38;99664.68;1765658;78;21742;-51
2021/04/23 11:09:22;;;;;;;4.17;0.50;;;;;;;12.30;45.01;99668.61;1765196;78;21501;-49
2021/04/23 11:12:14;;;;;;;2.45;0.70;;;;;;;12.21;46.12;99664.59;1767432;78;21403;-51
2021/04/23 11:14:43;;;;;;;4.17;0.60;;;;;;;12.15;46.83;99664.08;1768180;79;21226;-52
2021/04/23 11:17:22;;;;;;;2.25;0.57;;;;;;;12.14;46.73;99674.00;1750243;80;21119;-52
2021/04/23 11:19:51;;;;;;;2.00;0.60;;;;;;;12.09;46.90;99672.02;1770371;79;21126;-50
2021/04/23 11:22:23;;;;;;;2.05;0.62;;;;;;;12.07;46.81;99667.20;1769021;78;21418;-52
2021/04/23 11:25:13;;;;;;;6.60;0.70;;;;;;;12.07;47.92;99668.56;1775340;78;21868;-51
2021/04/23 11:28:05;;;;;;;1.95;0.70;;;;;;;12.08;47.01;99659.00;1775778;78;21212;-51
2021/04/23 11:31:01;;;;;;;2.17;0.40;;;;;;;12.11;46.88;99658.84;1768150;78;21227;-51
2021/04/23 11:33:51;;;;;;;1.42;0.60;;;;;;;12.16;46.97;99655.03;1752327;80;21500;-49
2021/04/23 11:36:36;;;;;;;1.22;0.60;;;;;;;12.22;46.54;99656.03;1769899;78;21198;-48
2021/04/23 11:39:07;;;;;;;1.05;0.50;;;;;;;12.22;46.35;99651.98;1740427;80;21925;-50
2021/04/23 11:41:37;;;;;;;3.92;0.70;;;;;;;12.19;46.32;99653.48;1743992;81;21212;-50
2021/04/23 11:44:18;;;;;;;3.15;0.70;;;;;;;12.17;46.31;99646.83;1744873;79;21584;-51
2021/04/23 11:46:54;;;;;;;1.53;0.60;;;;;;;12.18;45.81;99647.22;1826845;76;22691;-51
2021/04/23 11:49:21;;;;;;;3.92;1.17;;;;;;;12.13;45.92;99645.27;1794886;77;21194;-51
2021/04/23 11:51:52;;;;;;;3.62;0.80;;;;;;;12.12;45.85;99650.27;1792360;77;21639;-50
2021/04/23 11:54:30;;;;;;;6.70;0.70;;;;;;;12.06;45.88;99639.83;1789599;77;21052;-51
2021/04/23 11:57:01;;;;;;;1.85;0.90;;;;;;;12.03;46.49;99639.52;1794464;77;20944;-51
2021/04/23 11:59:28;;;;;;;2.67;0.70;;;;;;;12.03;46.55;99632.77;1790411;77;21044;-51
2021/04/23 12:01:56;;;;;;;3.27;0.95;;;;;;;12.02;46.21;99632.85;1763350;77;21151;-51